Revere, North Dakota
Current Conditions -  °F | °C
As of 2:15 PM on Friday 19 Dec 2014 (Local Time) from KBAC Reporting Station
Unknown Precip Unknown Precip  
Wind Chill: 20°   Ceiling: 600
Heat Index: 28°   Visibility: 4mi
Dew Point: 28°   Wind: 9mph
Humidity: 100%   Direction: 180°S
Pressure: 29.95"   Gusts: NA
Location:  47.2843°N, 98.1073°W
Report Text: KBAC 192015Z AUTO 18008KT 4SM UP OVC006 M02/M02 A2995 RMK AO2
Loading
Personal Weather Stations






























Interactive Weather Map New forecast layout! Learn more

10-Day Weather Forecast

Advertisements
Track Severe Weather on mobile